Aviation Digital Data Service (ADDS)

Output produced by METARs form (1616 UTC 25 January 2015)
found at http://aviationweather.gov/adds/metars/
 
KPVD 251508Z 2515/2612 25010G20KT P6SM SCT060 
     FM251800 28013G24KT P6SM SCT250 
     FM252300 29007KT P6SM FEW250 
     FM260300 33006KT P6SM FEW200 
     FM261000 01006KT P6SM BKN110